Time;durP1;ratioP1;P1;durP2;ratioP2;P2;SDS_P1;SDS_P2;PMS_P1;PMS_P2;Temp;Humidity;BMP_temperature;BMP_pressure;BME280_temperature;BME280_humidity;BME280_pressure;Samples;Min_cycle;Max_cycle;Signal;HPM_P1;HPM_P2
2023/03/19 00:02:25;;;;;;;0.83;0.83;;;;;;;3.26;84.03;100052.00;5049365;28;20201;-59
2023/03/19 00:04:52;;;;;;;0.70;0.70;;;;;;;3.28;84.00;100049.47;5038502;28;20199;-59
2023/03/19 00:07:19;;;;;;;0.70;0.70;;;;;;;3.19;84.48;100045.16;5047969;28;20216;-60
2023/03/19 00:09:47;;;;;;;0.60;0.60;;;;;;;3.23;84.52;100046.06;5040252;28;20857;-59
2023/03/19 00:12:14;;;;;;;0.70;0.70;;;;;;;3.25;84.28;100046.91;5043609;28;20212;-60
2023/03/19 00:14:42;;;;;;;0.70;0.70;;;;;;;3.30;84.24;100050.31;5043685;28;20201;-60
2023/03/19 00:17:10;;;;;;;1.07;1.07;;;;;;;3.31;84.21;100047.81;5043464;28;20665;-60
2023/03/19 00:19:36;;;;;;;0.70;0.70;;;;;;;3.32;83.72;100043.59;5033605;28;20692;-60
2023/03/19 00:22:04;;;;;;;0.60;0.60;;;;;;;3.33;83.88;100045.31;5038303;28;20197;-61
2023/03/19 00:24:30;;;;;;;0.60;0.60;;;;;;;3.28;83.91;100036.78;5035723;28;20292;-61
2023/03/19 00:26:57;;;;;;;1.17;1.17;;;;;;;3.33;83.80;100035.16;5039936;28;20205;-60
2023/03/19 00:29:24;;;;;;;0.60;0.60;;;;;;;3.31;83.64;100029.22;5045401;28;20196;-60
2023/03/19 00:31:53;;;;;;;0.80;0.80;;;;;;;3.31;83.39;100022.47;5037361;28;20206;-59
2023/03/19 00:34:20;;;;;;;0.60;0.60;;;;;;;3.35;83.05;100023.34;5032248;28;20197;-60
2023/03/19 00:36:47;;;;;;;0.60;0.60;;;;;;;3.37;83.09;100024.19;5032151;28;20197;-59
2023/03/19 00:39:15;;;;;;;0.70;0.70;;;;;;;3.37;82.72;100016.59;5032284;28;20201;-60
2023/03/19 00:41:49;;;;;;;0.60;0.60;;;;;;;3.38;82.63;100016.63;5032156;28;20201;-60
2023/03/19 00:44:16;;;;;;;0.60;0.60;;;;;;;3.38;82.35;100013.25;5032016;28;20197;-60
2023/03/19 00:46:43;;;;;;;0.80;0.80;;;;;;;3.38;82.43;100016.63;5031894;28;20216;-60
2023/03/19 00:49:11;;;;;;;0.60;0.60;;;;;;;3.35;82.61;100016.59;5032157;28;20661;-60
2023/03/19 00:51:42;;;;;;;0.60;0.60;;;;;;;3.28;82.76;100007.25;5026146;28;20256;-66
2023/03/19 00:54:10;;;;;;;0.80;0.80;;;;;;;3.17;83.58;100009.66;5031149;28;20193;-66
2023/03/19 00:56:37;;;;;;;0.70;0.70;;;;;;;3.02;84.56;99998.56;5030925;28;20200;-66
2023/03/19 00:59:04;;;;;;;0.77;0.77;;;;;;;2.99;84.38;99996.84;5028828;28;20212;-66
2023/03/19 01:01:31;;;;;;;0.77;0.77;;;;;;;2.97;84.68;100001.03;5026742;28;20206;-66
2023/03/19 01:03:58;;;;;;;0.70;0.70;;;;;;;2.97;84.96;100005.28;5031009;28;20212;-66
2023/03/19 01:06:26;;;;;;;1.10;1.10;;;;;;;2.97;84.87;99995.97;5026218;28;20213;-66
2023/03/19 01:08:53;;;;;;;0.70;0.70;;;;;;;2.88;84.80;100000.94;5027748;28;20198;-65
2023/03/19 01:11:19;;;;;;;0.67;0.67;;;;;;;2.92;85.18;99996.75;5030359;28;20212;-66
2023/03/19 01:13:46;;;;;;;0.70;0.70;;;;;;;2.95;85.20;99995.13;5027446;28;20201;-66
2023/03/19 01:16:14;;;;;;;0.60;0.60;;;;;;;2.99;85.16;100001.91;5030673;28;20669;-65
2023/03/19 01:18:40;;;;;;;0.70;0.70;;;;;;;3.05;84.78;99998.56;5030683;28;20197;-66
2023/03/19 01:21:07;;;;;;;0.63;0.63;;;;;;;3.07;84.55;99995.22;5030755;28;20200;-66
2023/03/19 01:23:35;;;;;;;0.70;0.70;;;;;;;3.09;84.51;99988.50;5026079;28;20259;-66
2023/03/19 01:26:02;;;;;;;0.67;0.67;;;;;;;3.10;84.03;99987.66;5027692;28;20201;-66
2023/03/19 01:28:29;;;;;;;0.63;0.63;;;;;;;3.11;84.04;99983.44;5019683;28;20579;-66
2023/03/19 01:30:59;;;;;;;0.70;0.70;;;;;;;3.11;83.80;99991.88;5019319;28;20210;-66
2023/03/19 01:33:26;;;;;;;0.70;0.70;;;;;;;3.09;83.58;99996.09;5028259;28;20221;-66
2023/03/19 01:35:53;;;;;;;0.70;0.70;;;;;;;3.09;83.83;99991.03;5026672;28;20267;-66
2023/03/19 01:38:21;;;;;;;0.83;0.83;;;;;;;3.11;83.44;99994.41;5028783;28;20200;-66
2023/03/19 01:40:49;;;;;;;0.60;0.60;;;;;;;3.11;83.28;99999.47;5028983;28;20259;-66
2023/03/19 01:43:19;;;;;;;0.70;0.70;;;;;;;3.11;83.28;99989.34;5026855;28;20574;-65
2023/03/19 01:45:47;;;;;;;0.70;0.70;;;;;;;3.14;83.35;99998.66;5030509;28;20201;-66
2023/03/19 01:48:24;;;;;;;0.70;0.70;;;;;;;3.16;83.08;99997.84;5029985;28;20228;-64
2023/03/19 01:50:54;;;;;;;0.70;0.70;;;;;;;3.14;82.89;100002.03;5030165;28;20200;-66
2023/03/19 01:53:24;;;;;;;0.60;0.60;;;;;;;2.97;82.67;99969.81;5030393;28;20197;-65
2023/03/19 01:55:55;;;;;;;0.60;0.60;;;;;;;3.15;82.71;100001.22;5026756;28;20205;-66
2023/03/19 01:58:22;;;;;;;0.87;0.87;;;;;;;3.15;82.58;100000.38;5025373;28;20304;-66
2023/03/19 02:00:48;;;;;;;0.60;0.60;;;;;;;3.06;82.40;100001.16;5027506;28;20635;-66
2023/03/19 02:03:16;;;;;;;0.80;0.80;;;;;;;3.04;82.46;100007.84;5030361;28;20719;-65
2023/03/19 02:05:45;;;;;;;0.70;0.70;;;;;;;3.03;82.66;100003.66;5030570;28;20201;-66
2023/03/19 02:08:15;;;;;;;0.70;0.70;;;;;;;3.02;82.54;100004.47;5030199;28;20362;-66
2023/03/19 02:10:44;;;;;;;0.70;0.70;;;;;;;3.01;82.59;100001.91;5025680;28;20246;-66
2023/03/19 02:13:13;;;;;;;0.67;0.67;;;;;;;2.98;82.54;100005.25;5030335;28;20197;-66
2023/03/19 02:15:40;;;;;;;0.70;0.70;;;;;;;2.98;82.52;100006.94;5033524;28;20200;-66
2023/03/19 02:18:09;;;;;;;0.83;0.83;;;;;;;2.99;82.69;100011.19;5033469;28;20581;-66
2023/03/19 02:20:45;;;;;;;0.80;0.80;;;;;;;2.99;82.68;100014.56;5033730;28;20197;-66
2023/03/19 02:23:17;;;;;;;0.70;0.70;;;;;;;2.97;82.64;100021.28;5030175;28;20283;-66
2023/03/19 02:25:58;;;;;;;0.60;0.60;;;;;;;2.94;82.67;100018.72;5033876;28;20589;-65
2023/03/19 02:28:26;;;;;;;0.70;0.70;;;;;;;2.92;82.70;100022.94;5030765;28;20221;-66
2023/03/19 02:30:53;;;;;;;0.73;0.73;;;;;;;2.93;82.95;100023.78;5033941;28;20201;-66
2023/03/19 02:33:20;;;;;;;0.90;0.90;;;;;;;2.93;82.92;100019.59;5048041;28;20220;-66
2023/03/19 02:35:50;;;;;;;0.70;0.70;;;;;;;2.95;83.13;100028.03;5053688;28;20672;-66
2023/03/19 02:38:16;;;;;;;0.60;0.60;;;;;;;2.90;83.36;100008.56;5031967;28;20273;-66
2023/03/19 02:40:48;;;;;;;0.70;0.70;;;;;;;2.99;83.35;100017.09;5033779;28;20208;-65
2023/03/19 02:43:16;;;;;;;0.70;0.70;;;;;;;3.00;83.44;100020.50;5033505;28;20204;-65
2023/03/19 02:45:43;;;;;;;0.67;0.67;;;;;;;3.03;83.60;100025.59;5033643;28;20206;-65
2023/03/19 02:48:10;;;;;;;0.60;0.60;;;;;;;3.08;83.55;100029.84;5033241;28;20732;-66
2023/03/19 02:50:36;;;;;;;0.80;0.80;;;;;;;3.10;83.67;100023.09;5045850;28;20212;-65
2023/03/19 02:53:03;;;;;;;0.80;0.80;;;;;;;3.01;83.75;100002.75;5051512;28;20196;-66
2023/03/19 02:55:30;;;;;;;0.60;0.60;;;;;;;3.14;83.79;100029.06;5032242;28;20204;-66
2023/03/19 02:57:57;;;;;;;0.70;0.70;;;;;;;3.15;83.88;100036.69;5035280;28;20581;-66
2023/03/19 03:00:25;;;;;;;0.90;0.90;;;;;;;3.17;83.83;100029.94;5031123;28;20197;-66
2023/03/19 03:02:52;;;;;;;0.90;0.90;;;;;;;3.17;83.95;100029.94;5031343;28;20205;-65
2023/03/19 03:05:20;;;;;;;0.70;0.70;;;;;;;3.20;84.03;100031.66;5033060;28;20198;-65
2023/03/19 03:07:48;;;;;;;0.67;0.67;;;;;;;3.21;84.16;100035.03;5032893;28;20217;-65
2023/03/19 03:10:15;;;;;;;0.70;0.70;;;;;;;3.11;84.10;100022.28;5033065;28;20200;-66
2023/03/19 03:12:42;;;;;;;0.70;0.70;;;;;;;3.18;84.35;100036.72;5030452;28;20267;-66
2023/03/19 03:15:10;;;;;;;0.80;0.80;;;;;;;2.94;84.47;100001.00;5032865;28;20205;-66
2023/03/19 03:17:38;;;;;;;0.60;0.60;;;;;;;3.14;84.65;100040.03;5032988;28;20193;-66
2023/03/19 03:20:07;;;;;;;0.60;0.60;;;;;;;3.21;84.59;100040.09;5031933;28;20199;-66
2023/03/19 03:22:34;;;;;;;0.60;0.60;;;;;;;3.16;84.87;100035.88;5032634;28;20582;-66
2023/03/19 03:25:01;;;;;;;0.80;0.80;;;;;;;3.09;85.19;100031.56;5032714;28;20232;-65
2023/03/19 03:27:28;;;;;;;0.70;0.70;;;;;;;3.05;85.24;100029.81;5032720;28;20213;-66
2023/03/19 03:29:55;;;;;;;0.70;0.70;;;;;;;2.80;85.68;100006.78;5032660;28;20201;-65
2023/03/19 03:32:22;;;;;;;0.70;0.70;;;;;;;2.99;85.54;100039.03;5030052;28;20225;-66
2023/03/19 03:34:51;;;;;;;0.60;0.60;;;;;;;2.95;85.85;100038.16;5032277;28;20197;-66
2023/03/19 03:37:18;;;;;;;0.70;0.70;;;;;;;2.91;85.63;100036.41;5032811;28;20213;-66
2023/03/19 03:39:45;;;;;;;0.70;0.70;;;;;;;2.90;85.68;100039.81;5032933;28;20201;-66
2023/03/19 03:42:12;;;;;;;0.63;0.63;;;;;;;2.93;85.24;100044.91;5030900;28;20584;-65
2023/03/19 03:44:39;;;;;;;0.77;0.77;;;;;;;2.91;85.02;100056.69;5028297;28;20624;-66
2023/03/19 03:47:06;;;;;;;0.80;0.80;;;;;;;2.68;85.06;100024.38;5026995;28;20217;-65
2023/03/19 03:49:33;;;;;;;0.63;0.63;;;;;;;2.86;84.91;100049.88;5032324;28;20259;-66
2023/03/19 03:52:01;;;;;;;1.20;1.20;;;;;;;2.87;84.81;100052.44;5032494;28;20198;-66
2023/03/19 03:54:28;;;;;;;0.60;0.60;;;;;;;2.89;84.35;100052.44;5032646;28;20260;-66
2023/03/19 03:56:55;;;;;;;0.70;0.70;;;;;;;2.86;84.29;100058.31;5031482;28;20201;-66
2023/03/19 03:59:21;;;;;;;0.60;0.60;;;;;;;2.82;84.29;100059.13;5024757;28;20585;-65
2023/03/19 04:01:48;;;;;;;0.87;0.87;;;;;;;2.69;84.58;100058.94;5029549;28;20661;-66
2023/03/19 04:04:15;;;;;;;0.60;0.60;;;;;;;2.60;84.74;100055.50;5031689;28;20204;-65
2023/03/19 04:06:42;;;;;;;0.70;0.70;;;;;;;2.57;85.19;100059.66;5032024;28;20252;-65
2023/03/19 04:09:10;;;;;;;0.67;0.67;;;;;;;2.56;85.14;100057.94;5031880;28;20220;-66
2023/03/19 04:11:37;;;;;;;0.60;0.60;;;;;;;2.52;85.25;100063.84;5029740;28;20757;-66
2023/03/19 04:14:05;;;;;;;0.70;0.70;;;;;;;2.51;85.49;100062.13;5028432;28;20662;-66
2023/03/19 04:16:32;;;;;;;0.77;0.77;;;;;;;2.48;85.45;100062.09;5026019;28;20582;-65
2023/03/19 04:18:58;;;;;;;0.77;0.77;;;;;;;2.47;85.53;100062.91;5032000;28;20225;-66
2023/03/19 04:21:26;;;;;;;0.60;0.60;;;;;;;2.40;85.56;100056.06;5031660;28;20208;-65
2023/03/19 04:23:53;;;;;;;0.63;0.63;;;;;;;2.33;85.55;100046.69;5021814;28;20292;-66
2023/03/19 04:26:21;;;;;;;0.60;0.60;;;;;;;2.36;85.56;100056.88;5021934;28;20213;-65
2023/03/19 04:28:48;;;;;;;0.63;0.63;;;;;;;2.33;85.74;100056.81;5029948;28;20313;-67
2023/03/19 04:31:15;;;;;;;0.63;0.63;;;;;;;2.32;86.14;100055.13;5028464;28;20677;-66
2023/03/19 04:33:42;;;;;;;0.90;0.90;;;;;;;2.27;86.20;100059.25;5047742;28;20247;-66
2023/03/19 04:36:09;;;;;;;1.00;1.00;;;;;;;2.27;86.34;100066.84;5031828;28;20205;-66
2023/03/19 04:38:37;;;;;;;0.73;0.73;;;;;;;2.29;86.28;100063.53;5030785;28;20669;-66
2023/03/19 04:41:04;;;;;;;0.93;0.93;;;;;;;2.35;86.36;100072.88;5032212;28;20671;-66
2023/03/19 04:43:32;;;;;;;0.73;0.73;;;;;;;2.41;86.28;100075.47;5031098;28;20197;-65
2023/03/19 04:45:59;;;;;;;0.70;0.70;;;;;;;2.45;85.97;100074.69;5030872;28;20201;-66
2023/03/19 04:48:26;;;;;;;0.77;0.77;;;;;;;2.45;86.24;100064.56;5026868;28;20217;-66
2023/03/19 04:50:55;;;;;;;0.83;0.83;;;;;;;2.52;86.00;100073.94;5030010;28;20197;-66
2023/03/19 04:53:23;;;;;;;0.90;0.90;;;;;;;2.57;85.87;100069.78;5029601;28;20216;-66
2023/03/19 04:55:50;;;;;;;0.60;0.60;;;;;;;2.60;85.67;100065.63;5027382;28;20205;-66
2023/03/19 04:58:17;;;;;;;0.70;0.70;;;;;;;2.66;85.68;100064.84;5030186;28;20284;-66
2023/03/19 05:00:46;;;;;;;0.80;0.80;;;;;;;2.69;85.88;100067.41;5026382;28;20201;-66
2023/03/19 05:03:13;;;;;;;0.73;0.73;;;;;;;2.75;86.08;100077.59;5027739;28;20201;-66
2023/03/19 05:05:40;;;;;;;0.70;0.70;;;;;;;2.68;85.84;100068.25;5030708;28;20264;-66
2023/03/19 05:08:08;;;;;;;0.90;0.90;;;;;;;2.70;85.74;100075.84;5033051;28;20716;-66
2023/03/19 05:10:36;;;;;;;0.80;0.80;;;;;;;2.59;85.69;100058.84;5029904;28;20204;-66
2023/03/19 05:13:03;;;;;;;0.60;0.60;;;;;;;2.77;85.95;100085.22;5029976;28;20224;-66
2023/03/19 05:15:30;;;;;;;0.70;0.70;;;;;;;2.74;85.89;100080.97;5029312;28;20699;-66
2023/03/19 05:17:58;;;;;;;0.60;0.60;;;;;;;2.64;85.77;100076.63;5026977;28;20225;-66
2023/03/19 05:20:25;;;;;;;0.70;0.70;;;;;;;2.76;85.79;100097.03;5029922;28;20201;-66
2023/03/19 05:22:53;;;;;;;0.60;0.60;;;;;;;2.72;85.27;100087.69;5029613;28;20201;-66
2023/03/19 05:25:19;;;;;;;0.80;0.80;;;;;;;2.75;85.40;100080.13;5038859;28;20212;-67
2023/03/19 05:27:46;;;;;;;0.80;0.80;;;;;;;2.79;85.52;100091.13;5036007;28;20225;-66
2023/03/19 05:30:13;;;;;;;1.57;1.57;;;;;;;2.78;85.89;100092.00;5030380;28;20209;-67
2023/03/19 05:32:40;;;;;;;0.60;0.60;;;;;;;2.86;85.97;100093.78;5035275;28;20256;-66
2023/03/19 05:35:09;;;;;;;0.70;0.70;;;;;;;2.89;85.87;100088.75;5025740;28;20256;-66
2023/03/19 05:37:36;;;;;;;0.93;0.93;;;;;;;2.94;85.70;100097.22;5028466;28;20203;-66
2023/03/19 05:40:03;;;;;;;0.70;0.70;;;;;;;3.00;86.24;100097.31;5027614;28;20280;-66
2023/03/19 05:42:30;;;;;;;0.67;0.67;;;;;;;3.09;86.46;100097.41;5029210;28;20220;-66
2023/03/19 05:44:56;;;;;;;0.60;0.60;;;;;;;3.18;86.82;100097.50;5033174;28;20589;-65
2023/03/19 05:47:23;;;;;;;0.60;0.60;;;;;;;3.29;86.67;100099.31;5034503;28;20753;-66
2023/03/19 05:49:50;;;;;;;0.60;0.60;;;;;;;3.31;86.91;100087.50;5037468;28;20204;-67
2023/03/19 05:52:18;;;;;;;0.90;0.90;;;;;;;3.40;86.79;100097.72;5037967;28;20211;-66
2023/03/19 05:54:48;;;;;;;0.73;0.73;;;;;;;3.57;86.58;100101.28;5031942;28;20212;-66
2023/03/19 05:57:15;;;;;;;0.67;0.67;;;;;;;3.75;86.24;100096.34;5030807;28;20296;-66
2023/03/19 05:59:43;;;;;;;0.63;0.63;;;;;;;4.10;84.99;100097.47;5033696;28;20619;-66
2023/03/19 06:02:10;;;;;;;0.70;0.70;;;;;;;4.27;83.52;100101.78;5039702;28;20216;-66
2023/03/19 06:04:37;;;;;;;0.83;0.83;;;;;;;4.44;82.52;100095.13;5034003;28;20201;-66
2023/03/19 06:07:05;;;;;;;0.90;0.90;;;;;;;4.65;81.43;100100.34;5035836;28;20207;-66
2023/03/19 06:09:33;;;;;;;0.60;0.60;;;;;;;4.97;81.22;100103.00;5041700;28;20218;-66
2023/03/19 06:12:00;;;;;;;0.57;0.57;;;;;;;5.27;79.92;100109.03;5045693;28;20215;-67
2023/03/19 06:14:27;;;;;;;0.70;0.70;;;;;;;5.51;78.40;100117.56;5032872;28;20209;-66
2023/03/19 06:16:54;;;;;;;0.60;0.60;;;;;;;5.84;77.20;100122.69;5038067;28;20206;-67
2023/03/19 06:19:21;;;;;;;0.80;0.80;;;;;;;5.96;75.25;100132.03;5030115;28;20569;-67
2023/03/19 06:21:48;;;;;;;0.80;0.80;;;;;;;6.05;74.04;100097.25;5033631;28;20201;-67
2023/03/19 06:24:15;;;;;;;0.60;0.60;;;;;;;6.28;72.91;100130.31;5034635;28;20205;-68
2023/03/19 06:26:43;;;;;;;0.60;0.60;;;;;;;6.49;72.86;100129.44;5034248;28;20223;-62
2023/03/19 06:29:10;;;;;;;0.53;0.53;;;;;;;6.72;72.88;100136.16;5046558;28;20216;-62
2023/03/19 06:31:38;;;;;;;0.70;0.70;;;;;;;6.93;72.29;100127.59;5033405;28;20699;-61
2023/03/19 06:34:05;;;;;;;0.77;0.77;;;;;;;7.13;71.14;100130.94;5051688;28;20231;-67
2023/03/19 06:36:31;;;;;;;0.73;0.73;;;;;;;7.34;70.08;100124.84;5043279;28;20202;-65
2023/03/19 06:38:58;;;;;;;0.70;0.70;;;;;;;7.54;70.13;100133.25;5033539;28;20198;-66
2023/03/19 06:41:25;;;;;;;0.60;0.60;;;;;;;7.68;69.42;100133.16;5033513;28;20711;-66
2023/03/19 06:43:53;;;;;;;0.60;0.60;;;;;;;7.90;68.52;100134.69;5037216;28;20207;-67
2023/03/19 06:46:20;;;;;;;0.60;0.60;;;;;;;8.11;68.36;100136.25;5029853;28;20198;-68
2023/03/19 06:48:47;;;;;;;0.60;0.60;;;;;;;8.27;67.75;100128.41;5032867;28;20312;-67
2023/03/19 06:51:14;;;;;;;0.57;0.57;;;;;;;8.31;67.90;100117.34;5033239;28;20662;-68
2023/03/19 06:53:40;;;;;;;0.50;0.50;;;;;;;8.52;68.19;100120.53;5032917;28;20205;-67
2023/03/19 06:56:08;;;;;;;0.40;0.40;;;;;;;8.76;68.03;100115.16;5031387;28;20209;-68
2023/03/19 06:58:35;;;;;;;0.60;0.60;;;;;;;8.90;67.62;100115.84;5028437;28;20229;-68
2023/03/19 07:01:03;;;;;;;0.60;0.60;;;;;;;9.07;67.01;100111.38;5031717;28;20197;-68
2023/03/19 07:03:31;;;;;;;0.67;0.67;;;;;;;9.14;66.15;100095.09;5048334;28;20193;-67
2023/03/19 07:05:58;;;;;;;0.47;0.47;;;;;;;9.43;65.69;100103.19;5053096;28;20197;-66
2023/03/19 07:08:28;;;;;;;0.53;0.53;;;;;;;9.66;65.09;100114.81;5045882;28;20217;-68
2023/03/19 07:10:55;;;;;;;0.60;0.60;;;;;;;9.89;66.52;100112.72;5036149;28;20312;-67
2023/03/19 07:13:22;;;;;;;0.40;0.40;;;;;;;10.05;64.65;100119.28;5037341;28;20284;-68
2023/03/19 07:15:49;;;;;;;0.40;0.40;;;;;;;10.12;64.45;100108.09;5029038;28;20202;-68
2023/03/19 07:18:17;;;;;;;0.50;0.50;;;;;;;10.18;61.46;100105.44;5032650;28;20197;-67
2023/03/19 07:20:44;;;;;;;0.40;0.40;;;;;;;10.32;62.72;100102.66;5033115;28;20751;-67
2023/03/19 07:23:12;;;;;;;0.77;0.77;;;;;;;10.42;60.65;100069.13;5040719;28;20200;-69
2023/03/19 07:25:38;;;;;;;0.63;0.63;;;;;;;10.74;61.38;100091.59;5052158;28;20283;-67
2023/03/19 07:28:05;;;;;;;3.03;1.00;;;;;;;10.97;60.46;100088.56;5028147;28;20201;-67
2023/03/19 07:30:32;;;;;;;0.50;0.50;;;;;;;11.16;59.44;100084.72;5034139;28;20279;-68
2023/03/19 07:32:59;;;;;;;0.40;0.40;;;;;;;11.38;57.11;100085.94;5030869;28;20220;-67
2023/03/19 07:35:27;;;;;;;0.57;0.57;;;;;;;11.55;55.80;100068.44;5032735;28;20193;-67
2023/03/19 07:37:54;;;;;;;0.40;0.40;;;;;;;11.93;57.34;100097.50;5032117;28;20205;-68
2023/03/19 07:40:21;;;;;;;0.53;0.53;;;;;;;12.07;57.13;100083.44;5032575;28;20197;-68
2023/03/19 07:42:48;;;;;;;0.60;0.60;;;;;;;12.36;56.23;100095.56;5032161;28;20209;-68
2023/03/19 07:45:15;;;;;;;0.60;0.60;;;;;;;12.39;55.23;100085.19;5028739;28;20193;-67
2023/03/19 07:47:41;;;;;;;0.40;0.40;;;;;;;12.69;51.92;100088.66;5029497;28;20208;-65
2023/03/19 07:50:09;;;;;;;0.40;0.40;;;;;;;12.91;52.58;100088.88;5017028;28;20222;-67
2023/03/19 07:52:37;;;;;;;0.40;0.40;;;;;;;13.14;50.10;100089.09;5032268;28;20198;-67
2023/03/19 07:55:05;;;;;;;0.40;0.40;;;;;;;13.27;50.33;100087.84;5029897;28;20193;-65
2023/03/19 07:57:32;;;;;;;0.70;0.70;;;;;;;13.28;47.45;100074.06;5026576;28;20201;-65
2023/03/19 07:59:59;;;;;;;0.50;0.50;;;;;;;13.34;48.74;100084.22;5022234;28;20768;-67
2023/03/19 08:02:26;;;;;;;0.50;0.50;;;;;;;13.45;48.94;100081.28;5018314;28;20234;-66
2023/03/19 08:04:53;;;;;;;0.40;0.40;;;;;;;13.53;47.02;100081.91;5019065;28;20594;-65
2023/03/19 08:07:20;;;;;;;0.50;0.50;;;;;;;13.57;47.92;100088.66;5026050;28;20287;-65
2023/03/19 08:09:48;;;;;;;0.47;0.47;;;;;;;13.63;48.17;100068.66;5026086;28;20593;-67
2023/03/19 08:12:15;;;;;;;0.83;0.83;;;;;;;13.89;47.86;100077.31;5026349;28;20209;-65
2023/03/19 08:14:42;;;;;;;0.50;0.50;;;;;;;14.05;47.99;100073.31;5028288;28;20209;-66
2023/03/19 08:17:09;;;;;;;0.57;0.57;;;;;;;14.22;46.34;100070.19;5021418;28;20261;-66
2023/03/19 08:19:36;;;;;;;0.50;0.50;;;;;;;14.30;47.41;100074.16;5027679;28;20216;-66
2023/03/19 08:22:02;;;;;;;0.50;0.50;;;;;;;14.43;46.43;100069.47;5026065;28;20207;-66
2023/03/19 08:24:29;;;;;;;0.40;0.40;;;;;;;14.57;45.67;100073.22;5027237;28;20224;-66
2023/03/19 08:26:58;;;;;;;0.50;0.50;;;;;;;14.67;46.51;100063.41;5026049;28;20616;-66
2023/03/19 08:29:26;;;;;;;0.50;0.50;;;;;;;14.85;45.66;100052.44;5022950;28;20221;-66
2023/03/19 08:31:53;;;;;;;0.47;0.47;;;;;;;14.99;45.74;100054.50;5027071;28;20202;-66
2023/03/19 08:34:20;;;;;;;0.40;0.40;;;;;;;15.24;44.71;100060.41;5026610;28;20205;-66
2023/03/19 08:36:47;;;;;;;0.60;0.60;;;;;;;15.52;43.83;100066.19;5024161;28;20225;-66
2023/03/19 08:39:14;;;;;;;0.70;0.70;;;;;;;15.57;43.13;100051.34;5028583;28;20194;-66
2023/03/19 08:41:41;;;;;;;0.80;0.80;;;;;;;15.65;43.56;100049.31;5029955;28;20219;-66
2023/03/19 08:44:09;;;;;;;0.40;0.40;;;;;;;15.79;42.73;100050.47;5022463;28;20694;-66
2023/03/19 08:46:36;;;;;;;0.40;0.40;;;;;;;15.79;43.39;100034.97;5023484;28;20622;-66
2023/03/19 08:49:03;;;;;;;0.50;0.50;;;;;;;15.91;42.89;100052.56;5022678;28;20213;-66
2023/03/19 08:51:30;;;;;;;0.50;0.50;;;;;;;15.91;44.00;100052.56;5031190;28;20197;-66
2023/03/19 08:53:57;;;;;;;0.47;0.47;;;;;;;16.11;43.07;100053.41;5019520;28;20209;-66
2023/03/19 08:56:24;;;;;;;0.40;0.40;;;;;;;16.27;43.42;100045.84;5030961;28;20209;-66
2023/03/19 08:58:51;;;;;;;0.40;0.40;;;;;;;16.39;39.63;100045.31;5028495;28;20194;-66
2023/03/19 09:01:19;;;;;;;0.50;0.50;;;;;;;16.34;38.22;100044.66;5030167;28;20688;-66
2023/03/19 09:03:46;;;;;;;0.70;0.70;;;;;;;16.34;38.50;100036.91;5027475;28;20585;-66
2023/03/19 09:06:14;;;;;;;0.30;0.30;;;;;;;16.55;38.04;100046.34;5023122;28;20213;-66
2023/03/19 09:08:41;;;;;;;0.50;0.50;;;;;;;16.57;37.60;100036.78;5018959;28;20225;-66
2023/03/19 09:11:09;;;;;;;0.80;0.80;;;;;;;16.82;39.95;100039.09;5025873;28;20198;-66
2023/03/19 09:13:36;;;;;;;0.50;0.50;;;;;;;16.73;38.27;100036.94;5021326;28;20217;-66
2023/03/19 09:16:03;;;;;;;0.60;0.60;;;;;;;16.90;38.20;100033.56;5017025;28;20217;-66
2023/03/19 09:18:31;;;;;;;0.40;0.40;;;;;;;16.86;37.76;100030.28;5029512;28;20292;-66
2023/03/19 09:20:58;;;;;;;0.50;0.50;;;;;;;16.87;39.11;100018.16;5028219;28;20535;-66
2023/03/19 09:23:25;;;;;;;0.50;0.50;;;;;;;16.76;39.11;100003.97;5028077;28;20197;-66
2023/03/19 09:25:52;;;;;;;0.50;0.50;;;;;;;16.79;38.53;100019.38;5029591;28;20284;-66
2023/03/19 09:28:19;;;;;;;0.63;0.63;;;;;;;16.90;41.29;100005.09;5030093;28;20224;-66
2023/03/19 09:30:47;;;;;;;0.53;0.53;;;;;;;17.07;40.12;100007.72;5030543;28;20729;-66
2023/03/19 09:33:14;;;;;;;0.50;0.50;;;;;;;17.08;40.26;100014.56;5024762;28;20279;-66
2023/03/19 09:35:43;;;;;;;0.50;0.50;;;;;;;17.21;42.53;100010.50;5032100;28;20252;-66
2023/03/19 09:38:10;;;;;;;0.70;0.70;;;;;;;17.34;41.04;100006.41;5031001;28;20201;-67
2023/03/19 09:40:39;;;;;;;0.80;0.80;;;;;;;17.36;39.88;99978.66;5037010;28;20197;-67
2023/03/19 09:43:29;;;;;;;0.57;0.57;;;;;;;17.57;43.45;99987.19;5049283;28;20208;-66
2023/03/19 09:45:57;;;;;;;0.50;0.50;;;;;;;17.58;39.40;99989.69;5028474;28;20252;-67
2023/03/19 09:48:34;;;;;;;0.43;0.43;;;;;;;17.45;41.14;99962.66;5026834;28;20201;-67
2023/03/19 09:51:08;;;;;;;0.50;0.50;;;;;;;17.49;39.08;99977.16;5028932;28;20197;-67
2023/03/19 09:53:44;;;;;;;0.40;0.40;;;;;;;17.46;40.23;99966.94;5029275;28;20204;-67
2023/03/19 09:56:15;;;;;;;0.40;0.40;;;;;;;17.60;40.60;99972.31;5026916;28;21037;-67
2023/03/19 09:58:43;;;;;;;0.40;0.40;;;;;;;17.81;42.16;99960.84;5029496;28;20206;-66
2023/03/19 10:01:24;;;;;;;0.40;0.40;;;;;;;17.86;41.54;99967.56;5026230;28;20208;-67
2023/03/19 10:04:09;;;;;;;0.53;0.53;;;;;;;18.07;43.09;99962.09;5028856;28;20263;-67
2023/03/19 10:06:39;;;;;;;0.60;0.60;;;;;;;17.95;42.10;99957.56;5027912;28;20212;-66
2023/03/19 10:09:41;;;;;;;0.47;0.47;;;;;;;18.03;41.90;99959.78;5033491;28;20228;-67
2023/03/19 10:12:19;;;;;;;0.40;0.40;;;;;;;18.16;41.62;99945.22;5028656;28;20292;-67
2023/03/19 10:15:10;;;;;;;0.40;0.40;;;;;;;18.41;42.54;99934.38;5027207;28;20700;-67
2023/03/19 10:17:42;;;;;;;0.40;0.40;;;;;;;18.41;39.12;99943.00;5028510;28;20213;-66
2023/03/19 10:20:20;;;;;;;0.50;0.50;;;;;;;18.36;39.92;99938.06;5027360;28;20700;-67
2023/03/19 10:22:51;;;;;;;0.30;0.30;;;;;;;18.48;39.70;99935.75;5026826;28;20237;-66
2023/03/19 10:25:22;;;;;;;0.60;0.60;;;;;;;18.43;38.84;99923.00;5026582;28;20200;-66
2023/03/19 10:27:56;;;;;;;0.50;0.50;;;;;;;18.38;39.85;99919.81;5026720;28;20309;-66
2023/03/19 10:30:23;;;;;;;0.50;0.50;;;;;;;18.36;40.41;99917.28;5034451;28;20226;-67
2023/03/19 10:32:54;;;;;;;0.93;0.93;;;;;;;18.47;40.78;99913.28;5026247;28;20229;-67
2023/03/19 10:35:24;;;;;;;0.50;0.50;;;;;;;18.47;40.49;99895.94;5026590;28;20440;-66
2023/03/19 10:37:54;;;;;;;0.50;0.50;;;;;;;18.69;44.42;99912.06;5027380;28;20233;-66
2023/03/19 10:40:26;;;;;;;0.93;0.93;;;;;;;18.77;39.43;99902.06;5030926;28;20207;-66
2023/03/19 10:43:04;;;;;;;0.50;0.50;;;;;;;18.88;41.46;99899.72;5030377;28;20588;-66
2023/03/19 10:45:32;;;;;;;0.37;0.37;;;;;;;18.67;40.46;99884.50;5022936;28;20226;-66
2023/03/19 10:48:01;;;;;;;0.40;0.40;;;;;;;18.78;45.06;99882.97;5028011;28;20276;-66
2023/03/19 10:50:31;;;;;;;0.40;0.40;;;;;;;18.79;39.64;99884.66;5029139;28;20259;-66
2023/03/19 10:53:07;;;;;;;0.40;0.40;;;;;;;18.66;39.65;99847.31;5027323;28;20212;-66
2023/03/19 10:55:35;;;;;;;0.40;0.40;;;;;;;18.78;39.28;99872.56;5026455;28;20271;-65
2023/03/19 10:58:04;;;;;;;0.40;0.40;;;;;;;18.27;40.12;99859.84;5029737;28;20226;-66
2023/03/19 11:00:34;;;;;;;0.43;0.43;;;;;;;18.27;40.90;99854.66;5027428;28;20197;-66
2023/03/19 11:03:03;;;;;;;0.50;0.50;;;;;;;18.24;40.64;99854.81;5028170;28;20240;-66
2023/03/19 11:05:32;;;;;;;0.53;0.53;;;;;;;18.38;41.01;99857.50;5032132;28;20202;-66
2023/03/19 11:08:01;;;;;;;0.70;0.70;;;;;;;18.41;40.87;99841.78;5032466;28;20211;-66
2023/03/19 11:10:32;;;;;;;0.40;0.40;;;;;;;18.37;40.54;99842.84;5032903;28;20222;-66
2023/03/19 11:13:03;;;;;;;0.50;0.50;;;;;;;18.32;40.44;99847.44;5029492;28;20202;-65
2023/03/19 11:15:36;;;;;;;0.50;0.50;;;;;;;18.02;41.28;99808.44;5032008;28;20194;-65
2023/03/19 11:18:08;;;;;;;0.60;0.60;;;;;;;18.16;42.79;99829.28;5032026;28;20209;-66
2023/03/19 11:20:37;;;;;;;0.40;0.40;;;;;;;18.21;40.64;99837.66;5032231;28;20210;-66
2023/03/19 11:23:11;;;;;;;0.40;0.40;;;;;;;18.14;41.88;99827.69;5032937;28;20289;-67
2023/03/19 11:25:41;;;;;;;0.50;0.50;;;;;;;18.35;40.76;99829.13;5032315;28;20241;-66
2023/03/19 11:28:11;;;;;;;0.50;0.50;;;;;;;18.22;41.18;99802.19;5032873;28;20669;-67
2023/03/19 11:30:43;;;;;;;0.50;0.50;;;;;;;18.18;41.62;99804.09;5032785;28;20226;-67
2023/03/19 11:33:25;;;;;;;0.40;0.40;;;;;;;18.29;40.68;99811.28;5033531;28;20243;-67
2023/03/19 11:36:04;;;;;;;0.50;0.50;;;;;;;18.02;41.11;99808.44;5030870;28;20198;-66
2023/03/19 11:38:39;;;;;;;0.50;0.50;;;;;;;17.74;41.45;99814.25;5038091;28;20695;-66